createdAt,value
2023-04-23T00:02:58.907Z,7.84
2023-04-23T00:08:03.208Z,7.79
2023-04-23T00:13:06.300Z,7.71
2023-04-23T00:18:09.001Z,7.73
2023-04-23T00:23:12.003Z,7.63
2023-04-23T00:28:14.753Z,7.56
2023-04-23T00:33:17.998Z,7.51
2023-04-23T00:38:21.567Z,7.50
2023-04-23T00:43:24.670Z,7.44
2023-04-23T00:48:29.215Z,7.38
2023-04-23T00:53:33.154Z,7.37
2023-04-23T00:58:36.538Z,7.46
2023-04-23T01:03:41.917Z,7.56
2023-04-23T01:08:45.900Z,7.61
2023-04-23T01:13:49.133Z,7.71
2023-04-23T01:18:53.976Z,7.75
2023-04-23T01:23:56.702Z,7.79
2023-04-23T01:29:00.397Z,7.76
2023-04-23T01:34:03.798Z,7.81
2023-04-23T01:39:06.444Z,7.86
2023-04-23T01:44:09.479Z,7.94
2023-04-23T01:49:12.950Z,7.93
2023-04-23T01:54:15.673Z,7.84
2023-04-23T01:59:18.495Z,7.77
2023-04-23T02:04:21.444Z,7.73
2023-04-23T02:09:24.211Z,7.78
2023-04-23T02:14:27.111Z,7.86
2023-04-23T02:19:34.712Z,7.90
2023-04-23T02:24:39.457Z,8.00
2023-04-23T02:29:42.359Z,8.23
2023-04-23T02:34:45.547Z,8.52
2023-04-23T02:39:48.390Z,8.86
2023-04-23T02:44:51.190Z,9.20
2023-04-23T02:49:54.808Z,9.42
2023-04-23T02:54:58.039Z,9.33
2023-04-23T03:00:01.319Z,9.39
2023-04-23T03:05:11.725Z,9.50
2023-04-23T03:10:14.519Z,9.79
2023-04-23T03:15:18.375Z,10.05
2023-04-23T03:20:21.868Z,10.02
2023-04-23T03:25:26.074Z,9.82
2023-04-23T03:30:31.199Z,9.44
2023-04-23T03:35:34.172Z,9.59
2023-04-23T03:40:40.024Z,10.90
2023-04-23T03:45:45.618Z,11.47
2023-04-23T03:50:48.704Z,12.20
2023-04-23T03:56:15.141Z,12.93
2023-04-23T04:01:26.626Z,14.03
2023-04-23T04:06:31.706Z,13.86
2023-04-23T04:11:34.825Z,14.46
2023-04-23T04:16:37.684Z,15.33
2023-04-23T04:21:40.565Z,16.00
2023-04-23T04:26:44.539Z,16.17
2023-04-23T04:31:49.122Z,15.51
2023-04-23T04:36:54.090Z,15.77
2023-04-23T04:41:57.838Z,16.20
2023-04-23T04:47:00.608Z,15.50
2023-04-23T04:52:03.535Z,14.20
2023-04-23T04:57:06.675Z,13.55
2023-04-23T05:02:09.606Z,13.49
2023-04-23T05:07:12.475Z,15.22
2023-04-23T05:12:15.452Z,16.11
2023-04-23T05:17:18.410Z,16.40
2023-04-23T05:22:21.544Z,17.87
2023-04-23T05:27:24.395Z,18.42
2023-04-23T05:32:27.496Z,17.56
2023-04-23T05:37:33.591Z,17.20
2023-04-23T05:42:37.044Z,18.89
2023-04-23T05:47:39.853Z,20.08
2023-04-23T05:52:42.845Z,19.34
2023-04-23T05:57:45.730Z,21.64
2023-04-23T06:02:48.586Z,21.89
2023-04-23T06:07:51.502Z,22.59
2023-04-23T06:12:55.977Z,23.02
2023-04-23T06:17:59.225Z,23.91
2023-04-23T06:23:03.113Z,24.16
2023-04-23T06:28:06.337Z,23.71
2023-04-23T06:33:17.900Z,23.75
2023-04-23T06:38:23.208Z,23.12
2023-04-23T06:43:26.070Z,21.15
2023-04-23T07:02:11.716Z,17.47
2023-04-23T07:07:14.886Z,17.03
2023-04-23T07:12:18.132Z,17.14
2023-04-23T07:17:21.006Z,16.89
2023-04-23T07:22:25.102Z,17.31
2023-04-23T07:27:28.327Z,16.79
2023-04-23T07:32:32.257Z,16.51
2023-04-23T07:37:34.902Z,16.33
2023-04-23T07:42:37.881Z,16.03
2023-04-23T07:47:40.759Z,16.00
2023-04-23T07:52:43.621Z,17.19
2023-04-23T07:57:46.637Z,18.87
2023-04-23T08:02:49.671Z,20.69
2023-04-23T08:07:52.519Z,21.80
2023-04-23T08:12:55.716Z,20.59
2023-04-23T08:17:58.792Z,19.65
2023-04-23T08:23:01.857Z,18.70
2023-04-23T08:28:04.814Z,18.41
2023-04-23T08:33:07.964Z,17.88
2023-04-23T08:38:10.696Z,18.07
2023-04-23T08:43:31.494Z,18.24
2023-04-23T08:48:35.116Z,18.83
2023-04-23T08:53:39.971Z,18.64
2023-04-23T08:58:43.720Z,19.40
2023-04-23T09:03:47.593Z,19.38
2023-04-23T09:08:51.620Z,19.54
2023-04-23T09:13:54.360Z,18.73
2023-04-23T09:18:57.580Z,18.33
2023-04-23T09:24:01.357Z,18.38
2023-04-23T09:29:04.420Z,19.19
2023-04-23T09:34:08.559Z,19.90
2023-04-23T09:39:16.021Z,20.06
2023-04-23T09:44:22.868Z,21.07
2023-04-23T09:49:28.162Z,22.10
2023-04-23T09:54:31.153Z,22.00
2023-04-23T09:59:46.973Z,21.05
2023-04-23T10:05:00.634Z,21.51
2023-04-23T10:10:09.864Z,22.75
2023-04-23T10:15:14.677Z,20.88
2023-04-23T10:20:17.562Z,20.59
2023-04-23T10:25:21.729Z,22.49
2023-04-23T10:30:25.012Z,23.55
2023-04-23T10:35:28.151Z,22.54
2023-04-23T10:40:34.313Z,21.41
2023-04-23T10:45:37.207Z,20.85
2023-04-23T10:50:58.340Z,20.67
2023-04-23T10:56:10.461Z,20.01
2023-04-23T11:01:13.190Z,19.67
2023-04-23T11:06:43.691Z,19.57
2023-04-23T11:11:46.396Z,18.97
2023-04-23T11:16:49.615Z,18.85
2023-04-23T11:22:06.353Z,18.67
2023-04-23T11:27:12.160Z,18.98
2023-04-23T11:32:17.602Z,20.19
2023-04-23T11:37:20.397Z,21.50
2023-04-23T11:42:23.579Z,21.50
2023-04-23T11:47:26.831Z,21.19
2023-04-23T11:52:29.791Z,20.78
2023-04-23T11:57:36.605Z,20.68
2023-04-23T12:02:51.320Z,21.17
2023-04-23T12:07:55.036Z,21.00
2023-04-23T12:12:59.146Z,20.50
2023-04-23T12:18:11.420Z,19.99
2023-04-23T12:23:14.262Z,19.77
2023-04-23T12:28:24.409Z,19.61
2023-04-23T12:33:31.122Z,19.56
2023-04-23T12:38:36.804Z,19.74
2023-04-23T12:43:41.622Z,19.76
2023-04-23T12:48:44.959Z,19.34
2023-04-23T12:53:47.850Z,19.11
2023-04-23T12:58:50.785Z,19.52
2023-04-23T13:03:53.738Z,19.52
2023-04-23T13:08:56.804Z,19.40
2023-04-23T13:13:59.803Z,19.38
2023-04-23T13:19:03.073Z,19.17
2023-04-23T13:24:05.987Z,18.96
2023-04-23T13:29:08.757Z,18.58
2023-04-23T13:34:11.865Z,18.06
2023-04-23T13:39:15.075Z,17.55
2023-04-23T13:44:18.119Z,17.17
2023-04-23T13:49:21.072Z,17.02
2023-04-23T13:54:23.972Z,16.97
2023-04-23T13:59:26.924Z,16.94
2023-04-23T14:04:29.884Z,16.85
2023-04-23T14:09:33.361Z,16.70
2023-04-23T14:14:36.407Z,16.35
2023-04-23T14:19:40.834Z,16.11
2023-04-23T14:24:46.973Z,15.94
2023-04-23T14:29:58.628Z,15.89
2023-04-23T14:35:03.215Z,15.86
2023-04-23T14:40:06.552Z,15.95
2023-04-23T14:45:10.003Z,16.06
2023-04-23T14:50:13.212Z,16.04
2023-04-23T14:55:19.377Z,15.82
2023-04-23T15:00:22.704Z,15.83
2023-04-23T15:05:26.019Z,15.62
2023-04-23T15:10:28.670Z,15.40
2023-04-23T15:16:03.253Z,15.21
2023-04-23T15:21:06.119Z,15.02
2023-04-23T15:26:09.695Z,14.90
2023-04-23T15:31:12.696Z,14.72
2023-04-23T15:36:15.933Z,14.47
2023-04-23T15:41:18.695Z,14.35
2023-04-23T15:46:21.554Z,14.17
2023-04-23T15:51:24.427Z,14.00
2023-04-23T15:56:28.444Z,13.84
2023-04-23T16:01:31.250Z,13.58
2023-04-23T16:06:34.625Z,13.41
2023-04-23T16:11:38.714Z,13.18
2023-04-23T16:16:42.172Z,12.96
2023-04-23T16:21:45.038Z,12.84
2023-04-23T16:26:47.883Z,12.69
2023-04-23T16:31:50.870Z,12.60
2023-04-23T16:36:53.691Z,12.45
2023-04-23T16:41:56.289Z,12.31
2023-04-23T16:46:59.332Z,12.22
2023-04-23T16:52:03.857Z,12.14
2023-04-23T16:57:07.801Z,12.09
2023-04-23T17:02:10.622Z,12.14
2023-04-23T17:07:13.694Z,12.18
2023-04-23T17:12:16.332Z,12.30
2023-04-23T17:17:20.625Z,12.43
2023-04-23T17:22:23.331Z,12.56
2023-04-23T17:27:27.224Z,12.47
2023-04-23T17:32:30.181Z,12.28
2023-04-23T17:37:36.028Z,12.11
2023-04-23T17:42:39.176Z,11.97
2023-04-23T17:47:42.067Z,11.94
2023-04-23T17:52:45.544Z,11.94
2023-04-23T17:57:49.115Z,11.91
2023-04-23T18:02:52.502Z,11.92
2023-04-23T18:07:56.516Z,11.86
2023-04-23T18:13:03.487Z,11.73
2023-04-23T18:18:06.580Z,11.65
2023-04-23T18:23:11.182Z,11.48
2023-04-23T18:28:14.002Z,11.36
2023-04-23T18:33:19.511Z,11.22
2023-04-23T18:38:34.392Z,11.16
2023-04-23T18:43:37.162Z,10.94
2023-04-23T18:48:47.794Z,10.83
2023-04-23T18:53:51.962Z,10.78
2023-04-23T18:58:55.010Z,10.75
2023-04-23T19:03:59.189Z,10.61
2023-04-23T19:09:01.824Z,10.54
2023-04-23T19:14:07.536Z,10.56
2023-04-23T19:19:10.563Z,10.44
2023-04-23T19:24:13.484Z,10.34
2023-04-23T19:29:16.493Z,10.22
2023-04-23T19:34:19.553Z,10.16
2023-04-23T19:39:23.863Z,10.16
2023-04-23T19:44:26.518Z,10.36
2023-04-23T19:49:29.666Z,10.43
2023-04-23T19:54:32.642Z,10.27
2023-04-23T19:59:35.318Z,10.18
2023-04-23T20:04:39.097Z,10.19
2023-04-23T20:09:42.220Z,10.03
2023-04-23T20:14:45.244Z,9.89
2023-04-23T20:19:49.956Z,9.82
2023-04-23T20:24:53.365Z,9.70
2023-04-23T20:29:56.405Z,9.70
2023-04-23T20:35:00.362Z,9.63
2023-04-23T20:40:03.899Z,9.46
2023-04-23T20:45:08.532Z,9.40
2023-04-23T20:50:11.574Z,9.32
2023-04-23T20:55:14.772Z,9.24
2023-04-23T21:00:20.431Z,9.18
2023-04-23T21:05:23.314Z,9.12
2023-04-23T21:10:26.038Z,9.05
2023-04-23T21:15:30.997Z,8.94
2023-04-23T21:20:33.643Z,8.96
2023-04-23T21:25:38.976Z,8.85
2023-04-23T21:30:49.325Z,8.80
2023-04-23T21:35:53.834Z,8.71
2023-04-23T21:40:56.666Z,8.61
2023-04-23T21:45:59.381Z,8.58
2023-04-23T21:51:02.509Z,8.48
2023-04-23T21:56:06.008Z,8.47
2023-04-23T22:01:08.982Z,8.48
2023-04-23T22:06:13.061Z,8.44
2023-04-23T22:11:19.391Z,8.38
2023-04-23T22:16:28.220Z,8.33
2023-04-23T22:21:33.172Z,8.26
2023-04-23T22:26:36.495Z,8.22
2023-04-23T22:31:39.532Z,8.14
2023-04-23T22:36:43.551Z,8.08
2023-04-23T22:41:46.420Z,8.07
2023-04-23T22:46:49.977Z,8.10
2023-04-23T22:51:52.910Z,8.17
2023-04-23T22:56:55.648Z,8.18
2023-04-23T23:01:58.515Z,8.17
2023-04-23T23:07:01.661Z,8.03
2023-04-23T23:12:05.241Z,7.96
2023-04-23T23:17:07.941Z,8.11
2023-04-23T23:22:10.709Z,8.28
2023-04-23T23:27:13.637Z,8.46
2023-04-23T23:32:16.724Z,8.63
2023-04-23T23:37:19.569Z,8.72
2023-04-23T23:42:22.546Z,8.84
2023-04-23T23:47:25.465Z,8.88
2023-04-23T23:52:28.139Z,8.86
2023-04-23T23:57:30.805Z,8.96
